Time;durP1;ratioP1;P1;durP2;ratioP2;P2;SDS_P1;SDS_P2;PMS_P1;PMS_P2;Temp;Humidity;BMP_temperature;BMP_pressure;BME280_temperature;BME280_humidity;BME280_pressure;Samples;Min_cycle;Max_cycle;Signal;HPM_P1;HPM_P2
2023/08/22 00:00:52;;;;;;;3.25;0.50;;;17.80;99.90;;;;;;4964886;28;20070;-82
2023/08/22 00:03:18;;;;;;;1.30;0.50;;;17.80;99.90;;;;;;4944549;28;20047;-81
2023/08/22 00:05:44;;;;;;;1.83;0.60;;;17.90;99.90;;;;;;4963590;28;20484;-81
2023/08/22 00:08:09;;;;;;;1.20;0.60;;;17.90;99.90;;;;;;4966509;28;20043;-81
2023/08/22 00:10:36;;;;;;;1.42;0.50;;;17.90;99.90;;;;;;4950077;28;20093;-81
2023/08/22 00:13:03;;;;;;;1.95;0.68;;;17.90;99.90;;;;;;4949011;28;20034;-81
2023/08/22 00:15:29;;;;;;;1.20;0.50;;;17.90;99.90;;;;;;4961173;28;20475;-81
2023/08/22 00:17:55;;;;;;;1.35;0.57;;;18.00;99.90;;;;;;4961219;28;20396;-82
2023/08/22 00:20:22;;;;;;;3.42;0.60;;;17.90;99.90;;;;;;4944817;28;20031;-81
2023/08/22 00:22:48;;;;;;;1.85;0.57;;;17.90;99.90;;;;;;4964303;28;20086;-81
2023/08/22 00:25:13;;;;;;;3.15;0.60;;;17.90;99.90;;;;;;4958959;28;20023;-81
2023/08/22 00:27:39;;;;;;;2.20;0.57;;;17.90;99.90;;;;;;4965238;28;20031;-81
2023/08/22 00:30:06;;;;;;;1.67;0.50;;;17.90;99.90;;;;;;4943742;28;20048;-81
2023/08/22 00:32:31;;;;;;;1.73;0.60;;;17.90;99.90;;;;;;4961951;28;20094;-81
2023/08/22 00:34:58;;;;;;;1.58;0.50;;;18.00;99.90;;;;;;4944346;28;20055;-81
2023/08/22 00:37:24;;;;;;;1.48;0.50;;;18.00;99.90;;;;;;4961700;28;20500;-81
2023/08/22 00:39:50;;;;;;;1.42;0.50;;;17.90;99.90;;;;;;4945825;28;20056;-81
2023/08/22 00:42:15;;;;;;;1.70;0.70;;;17.80;99.90;;;;;;4947045;28;20026;-81
2023/08/22 00:44:41;;;;;;;1.92;0.70;;;17.70;99.90;;;;;;4965091;28;20054;-81
2023/08/22 00:47:07;;;;;;;2.53;0.77;;;17.70;99.90;;;;;;4960967;28;20035;-80
2023/08/22 00:49:34;;;;;;;2.88;0.75;;;17.70;99.90;;;;;;4965260;28;20113;-81
2023/08/22 00:52:02;;;;;;;2.05;0.70;;;17.70;99.90;;;;;;4944668;28;20058;-81
2023/08/22 00:54:29;;;;;;;2.38;0.70;;;17.70;99.90;;;;;;4963826;28;20543;-80
2023/08/22 00:56:56;;;;;;;2.25;0.70;;;17.70;99.90;;;;;;4956562;28;20138;-81
2023/08/22 00:59:25;;;;;;;2.10;0.63;;;17.70;99.90;;;;;;4962510;28;20468;-81
2023/08/22 01:01:51;;;;;;;2.08;0.70;;;17.70;99.90;;;;;;4959314;28;20035;-81
2023/08/22 01:04:17;;;;;;;2.55;0.77;;;17.70;99.90;;;;;;4965700;28;20073;-81
2023/08/22 01:07:06;;;;;;;2.47;0.65;;;17.60;99.90;;;;;;4945980;28;20054;-81
2023/08/22 01:09:32;;;;;;;2.22;0.75;;;17.60;99.90;;;;;;4943449;28;20118;-81
2023/08/22 01:12:12;;;;;;;2.10;0.80;;;17.70;99.90;;;;;;4942777;28;20126;-80
2023/08/22 01:14:44;;;;;;;2.67;0.80;;;17.60;99.90;;;;;;4958609;28;20547;-81
2023/08/22 01:17:13;;;;;;;2.00;0.88;;;17.60;99.90;;;;;;4966128;28;20073;-81
2023/08/22 01:19:39;;;;;;;2.13;0.73;;;17.60;99.90;;;;;;4952799;28;20498;-81
2023/08/22 01:22:05;;;;;;;2.20;0.80;;;17.70;99.90;;;;;;4963527;28;20035;-81
2023/08/22 01:24:30;;;;;;;1.50;0.70;;;17.60;99.90;;;;;;4958252;28;20031;-81
2023/08/22 01:26:57;;;;;;;5.20;1.00;;;17.60;99.90;;;;;;4958362;28;20050;-81
2023/08/22 01:29:45;;;;;;;1.48;0.60;;;17.60;99.90;;;;;;4946395;28;20027;-81
2023/08/22 01:32:21;;;;;;;2.40;0.75;;;17.60;99.90;;;;;;4949608;28;20038;-81
2023/08/22 01:34:50;;;;;;;1.55;0.70;;;17.60;99.90;;;;;;4957501;28;20403;-81
2023/08/22 01:37:17;;;;;;;3.60;0.80;;;17.60;99.90;;;;;;4959745;28;20510;-81
2023/08/22 01:39:45;;;;;;;2.70;0.95;;;17.50;99.90;;;;;;4958310;28;20428;-81
2023/08/22 01:42:11;;;;;;;3.78;0.90;;;17.50;99.90;;;;;;4956728;28;20098;-81
2023/08/22 01:44:37;;;;;;;2.55;1.10;;;17.50;99.90;;;;;;4960260;28;20032;-81
2023/08/22 01:47:03;;;;;;;3.10;1.10;;;17.50;99.90;;;;;;4957923;28;20488;-81
2023/08/22 01:49:29;;;;;;;1.52;0.80;;;17.50;99.90;;;;;;4944760;28;20109;-81
2023/08/22 01:51:55;;;;;;;3.13;0.98;;;17.50;99.90;;;;;;4957962;28;20111;-81
2023/08/22 01:54:22;;;;;;;2.20;0.80;;;17.50;99.90;;;;;;4945723;28;20024;-81
2023/08/22 01:56:47;;;;;;;2.40;0.90;;;17.40;99.90;;;;;;4959530;28;20384;-81
2023/08/22 01:59:13;;;;;;;1.98;0.95;;;17.40;99.90;;;;;;4943384;28;20027;-81
2023/08/22 02:01:39;;;;;;;1.92;0.90;;;17.40;99.90;;;;;;4943931;28;20041;-81
2023/08/22 02:04:04;;;;;;;2.50;0.85;;;17.40;99.90;;;;;;4954947;28;20062;-81
2023/08/22 02:06:31;;;;;;;2.20;1.00;;;17.40;99.90;;;;;;4954943;28;20494;-80
2023/08/22 02:08:57;;;;;;;1.75;0.85;;;17.40;99.90;;;;;;4943373;28;20039;-81
2023/08/22 02:11:22;;;;;;;2.90;1.10;;;17.30;99.90;;;;;;4963320;28;20081;-81
2023/08/22 02:13:48;;;;;;;1.90;1.10;;;17.40;99.90;;;;;;4944919;28;20031;-81
2023/08/22 02:16:14;;;;;;;1.90;0.98;;;17.40;99.90;;;;;;4950428;28;20023;-81
2023/08/22 02:18:40;;;;;;;2.05;1.00;;;17.30;99.90;;;;;;4960240;28;20031;-81
2023/08/22 02:21:06;;;;;;;2.72;0.75;;;17.30;99.90;;;;;;4941729;28;20034;-81
2023/08/22 02:23:32;;;;;;;2.08;1.20;;;17.30;99.90;;;;;;4943586;28;20039;-81
2023/08/22 02:25:58;;;;;;;1.90;0.73;;;17.40;99.90;;;;;;4953849;28;20041;-81
2023/08/22 02:28:24;;;;;;;3.60;0.80;;;17.40;99.90;;;;;;4939392;28;20399;-80
2023/08/22 02:30:56;;;;;;;2.60;0.85;;;17.40;99.90;;;;;;4941962;28;20094;-81
2023/08/22 02:33:23;;;;;;;3.00;0.70;;;17.40;99.90;;;;;;4958788;28;20035;-81
2023/08/22 02:35:49;;;;;;;1.70;0.60;;;17.40;99.90;;;;;;4956333;28;20471;-81
2023/08/22 02:38:16;;;;;;;2.15;0.88;;;17.30;99.90;;;;;;4958151;28;20027;-81
2023/08/22 02:40:42;;;;;;;2.47;0.80;;;17.30;99.90;;;;;;4947444;28;20023;-81
2023/08/22 02:43:07;;;;;;;3.38;1.05;;;17.40;99.90;;;;;;4944925;28;20382;-81
2023/08/22 02:45:33;;;;;;;2.90;0.70;;;17.30;99.90;;;;;;4951237;28;20419;-81
2023/08/22 02:47:59;;;;;;;2.78;0.95;;;17.30;99.90;;;;;;4946152;28;20051;-81
2023/08/22 02:50:25;;;;;;;1.63;0.82;;;17.30;99.90;;;;;;4960691;28;20027;-81
2023/08/22 02:52:51;;;;;;;1.60;0.80;;;17.30;99.90;;;;;;4941078;28;20031;-81
2023/08/22 02:55:19;;;;;;;3.15;0.90;;;17.30;99.90;;;;;;4945830;28;20023;-81
2023/08/22 02:57:45;;;;;;;2.67;0.73;;;17.30;99.90;;;;;;4958020;28;20205;-81
2023/08/22 03:00:12;;;;;;;2.65;0.77;;;17.30;99.90;;;;;;4962741;28;20547;-81
2023/08/22 03:02:39;;;;;;;3.38;1.02;;;17.30;99.90;;;;;;4961731;28;20157;-81
2023/08/22 03:05:09;;;;;;;1.80;0.77;;;17.30;99.90;;;;;;4962338;28;20033;-81
2023/08/22 03:07:35;;;;;;;2.05;0.82;;;17.30;99.90;;;;;;4962236;28;20472;-81
2023/08/22 03:10:02;;;;;;;1.60;0.70;;;17.20;99.90;;;;;;4948691;28;20031;-81
2023/08/22 03:12:28;;;;;;;2.45;0.77;;;17.20;99.90;;;;;;4945657;28;20032;-81
2023/08/22 03:14:54;;;;;;;2.10;0.90;;;17.20;99.90;;;;;;4946265;28;20023;-81
2023/08/22 03:17:20;;;;;;;1.95;0.70;;;17.10;99.90;;;;;;4964115;28;20093;-81
2023/08/22 03:19:46;;;;;;;3.08;1.00;;;17.10;99.90;;;;;;4945918;28;20391;-81
2023/08/22 03:22:12;;;;;;;2.88;0.98;;;17.10;99.90;;;;;;4948048;28;20030;-81
2023/08/22 03:24:37;;;;;;;2.33;0.85;;;17.10;99.90;;;;;;4966977;28;20435;-81
2023/08/22 03:27:04;;;;;;;3.05;1.00;;;17.00;99.90;;;;;;4945913;28;20050;-81
2023/08/22 03:29:29;;;;;;;1.85;0.80;;;17.00;99.90;;;;;;4966744;28;20666;-81
2023/08/22 03:31:58;;;;;;;2.45;0.90;;;17.00;99.90;;;;;;4946407;28;20484;-81
2023/08/22 03:34:24;;;;;;;2.90;1.15;;;17.00;99.90;;;;;;4945770;28;20022;-81
2023/08/22 03:36:49;;;;;;;3.03;1.20;;;17.00;99.90;;;;;;4954316;28;20361;-81
2023/08/22 03:39:15;;;;;;;2.63;0.90;;;16.90;99.90;;;;;;4957881;28;20039;-81
2023/08/22 03:41:41;;;;;;;3.22;0.80;;;16.80;99.90;;;;;;4958730;28;20073;-81
2023/08/22 03:44:07;;;;;;;2.10;1.00;;;16.70;99.90;;;;;;4943640;28;20083;-80
2023/08/22 03:46:33;;;;;;;2.05;0.93;;;16.70;99.90;;;;;;4945510;28;20023;-81
2023/08/22 03:48:59;;;;;;;1.98;0.88;;;16.70;99.90;;;;;;4953191;28;20451;-81
2023/08/22 03:51:25;;;;;;;3.60;0.90;;;16.70;99.90;;;;;;4945722;28;20027;-81
2023/08/22 03:53:51;;;;;;;1.83;0.80;;;16.70;99.90;;;;;;4959193;28;20031;-81
2023/08/22 03:56:17;;;;;;;2.30;1.02;;;16.70;99.90;;;;;;4953350;28;20082;-80
2023/08/22 03:58:43;;;;;;;2.05;0.80;;;16.60;99.90;;;;;;4947269;28;20480;-81
2023/08/22 04:01:08;;;;;;;3.38;1.00;;;16.60;99.90;;;;;;4963283;28;20043;-81
2023/08/22 04:03:35;;;;;;;2.05;1.00;;;16.60;99.90;;;;;;4946312;28;20054;-80
2023/08/22 04:06:03;;;;;;;2.10;1.00;;;16.60;99.90;;;;;;4944937;28;20043;-80
2023/08/22 04:08:30;;;;;;;3.10;0.93;;;16.50;99.90;;;;;;4945759;28;20043;-81
2023/08/22 04:10:56;;;;;;;1.70;0.88;;;16.40;99.90;;;;;;4959708;28;20035;-82
2023/08/22 04:13:22;;;;;;;2.72;1.08;;;16.40;99.90;;;;;;4946564;28;20395;-81
2023/08/22 04:15:48;;;;;;;2.13;1.10;;;16.40;99.90;;;;;;4953190;28;20068;-81
2023/08/22 04:18:15;;;;;;;2.47;1.00;;;16.30;99.90;;;;;;4951702;28;20485;-81
2023/08/22 04:20:43;;;;;;;3.25;1.05;;;16.30;99.90;;;;;;4974966;28;20028;-80
2023/08/22 04:23:09;;;;;;;2.40;0.88;;;16.30;99.90;;;;;;4945534;28;20114;-81
2023/08/22 04:25:36;;;;;;;1.85;0.75;;;16.30;99.90;;;;;;4947065;28;20031;-82
2023/08/22 04:28:02;;;;;;;3.33;1.10;;;16.30;99.90;;;;;;4961086;28;20051;-81
2023/08/22 04:30:28;;;;;;;2.38;1.27;;;16.30;99.90;;;;;;4945423;28;20519;-81
2023/08/22 04:32:55;;;;;;;2.50;0.80;;;16.20;99.90;;;;;;4943856;28;20039;-81
2023/08/22 04:35:21;;;;;;;3.00;1.40;;;16.20;99.90;;;;;;4947924;28;20023;-80
2023/08/22 04:37:50;;;;;;;2.33;1.20;;;16.20;99.90;;;;;;4964034;28;20480;-81
2023/08/22 04:40:16;;;;;;;2.05;1.10;;;16.20;99.90;;;;;;4959629;28;20114;-81
2023/08/22 04:43:03;;;;;;;3.17;1.00;;;16.20;99.90;;;;;;4965607;28;20525;-81
2023/08/22 04:45:30;;;;;;;3.42;1.45;;;16.20;99.90;;;;;;4945540;28;20114;-81
2023/08/22 04:47:55;;;;;;;3.20;1.05;;;16.20;99.90;;;;;;4943507;28;20047;-81
2023/08/22 04:50:21;;;;;;;2.25;0.95;;;16.20;99.90;;;;;;4951155;28;20467;-81
2023/08/22 04:52:47;;;;;;;2.72;0.98;;;16.30;99.90;;;;;;4959934;28;20348;-81
2023/08/22 04:55:13;;;;;;;3.53;1.30;;;16.20;99.90;;;;;;4966564;28;20023;-80
2023/08/22 04:57:39;;;;;;;2.15;1.00;;;16.20;99.90;;;;;;4944837;28;20037;-80
2023/08/22 05:00:08;;;;;;;2.15;1.10;;;16.30;99.90;;;;;;4961800;28;20110;-82
2023/08/22 05:02:33;;;;;;;2.97;1.25;;;16.30;99.90;;;;;;4951205;28;20033;-81
2023/08/22 05:04:59;;;;;;;3.55;1.05;;;16.30;99.90;;;;;;4959572;28;20039;-80
2023/08/22 05:07:25;;;;;;;2.47;0.95;;;16.20;99.90;;;;;;4943644;28;20448;-82
2023/08/22 05:09:52;;;;;;;3.10;0.88;;;16.20;99.90;;;;;;4948079;28;20057;-80
2023/08/22 05:12:18;;;;;;;4.47;0.95;;;16.20;99.90;;;;;;4945680;28;20482;-81
2023/08/22 05:14:44;;;;;;;1.67;1.00;;;16.30;99.90;;;;;;4944077;28;20073;-81
2023/08/22 05:17:09;;;;;;;2.22;1.10;;;16.30;99.90;;;;;;4962981;28;20027;-81
2023/08/22 05:19:37;;;;;;;2.60;1.02;;;16.30;99.90;;;;;;4960368;28;20135;-82
2023/08/22 05:22:03;;;;;;;3.50;1.17;;;16.30;99.90;;;;;;4945970;28;20035;-81
2023/08/22 05:24:29;;;;;;;2.72;1.15;;;16.30;99.90;;;;;;4961574;28;20027;-82
2023/08/22 05:26:54;;;;;;;3.05;1.13;;;16.30;99.90;;;;;;4944017;28;20035;-81
2023/08/22 05:29:20;;;;;;;2.35;1.15;;;16.40;99.90;;;;;;4941712;28;20120;-81
2023/08/22 05:31:46;;;;;;;2.13;1.17;;;16.50;99.90;;;;;;4902642;28;20046;-81
2023/08/22 05:34:12;;;;;;;3.65;1.05;;;16.50;99.90;;;;;;4940927;28;20538;-81
2023/08/22 05:36:39;;;;;;;2.42;1.40;;;16.50;99.90;;;;;;4947036;28;20038;-81
2023/08/22 05:39:06;;;;;;;4.10;1.08;;;16.60;99.90;;;;;;4946167;28;20035;-81
2023/08/22 05:41:32;;;;;;;2.42;1.33;;;16.70;99.90;;;;;;4934890;28;20125;-81
2023/08/22 05:43:58;;;;;;;3.05;0.93;;;16.80;99.90;;;;;;4943622;28;20059;-81
2023/08/22 05:46:25;;;;;;;2.72;0.95;;;17.00;99.90;;;;;;4944701;28;20028;-81
2023/08/22 05:48:51;;;;;;;4.60;1.40;;;17.20;99.90;;;;;;4945308;28;20109;-81
2023/08/22 05:51:17;;;;;;;3.45;1.20;;;17.40;99.90;;;;;;4943464;28;20553;-81
2023/08/22 05:53:43;;;;;;;3.15;1.20;;;17.50;99.90;;;;;;4934368;28;20081;-80
2023/08/22 05:56:09;;;;;;;1.73;1.00;;;17.60;99.90;;;;;;4943726;28;20476;-81
2023/08/22 05:58:35;;;;;;;2.92;1.10;;;17.70;99.90;;;;;;4935577;28;20058;-81
2023/08/22 06:01:10;;;;;;;2.72;1.10;;;17.70;99.90;;;;;;4936427;28;20043;-81
2023/08/22 06:03:39;;;;;;;2.40;1.10;;;17.80;99.90;;;;;;4951114;28;20532;-81
2023/08/22 06:06:06;;;;;;;3.15;1.40;;;18.10;99.90;;;;;;4935545;28;20038;-80
2023/08/22 06:08:31;;;;;;;2.72;1.73;;;18.30;99.90;;;;;;4946466;28;20043;-81
2023/08/22 06:10:58;;;;;;;2.25;0.90;;;18.30;99.90;;;;;;4946479;28;20035;-82
2023/08/22 06:13:24;;;;;;;2.13;0.77;;;18.40;99.90;;;;;;4943278;28;20035;-82
2023/08/22 06:15:50;;;;;;;3.78;1.70;;;18.50;99.90;;;;;;4930176;28;20031;-81
2023/08/22 06:18:20;;;;;;;;;;;18.60;99.90;;;;;;4929230;28;20039;-81
2023/08/22 06:20:46;;;;;;;4.20;2.50;;;18.60;99.90;;;;;;4928275;28;19918;-81
2023/08/22 06:23:12;;;;;;;3.90;2.30;;;18.60;99.90;;;;;;4928728;28;20126;-80
2023/08/22 06:25:37;;;;;;;3.78;2.28;;;18.70;99.90;;;;;;4928699;28;20641;-81
2023/08/22 06:28:03;;;;;;;5.40;2.05;;;18.80;99.90;;;;;;4946745;28;20126;-81
2023/08/22 06:30:30;;;;;;;2.25;1.45;;;19.00;99.90;;;;;;4910099;28;20059;-81
2023/08/22 06:32:56;;;;;;;4.38;1.20;;;19.20;99.90;;;;;;4941224;28;20508;-81
2023/08/22 06:35:21;;;;;;;2.65;1.25;;;19.30;99.90;;;;;;4936187;28;20038;-81
2023/08/22 06:37:47;;;;;;;2.13;0.82;;;19.50;99.90;;;;;;4928663;28;20039;-80
2023/08/22 06:40:13;;;;;;;3.30;1.23;;;19.70;99.90;;;;;;4945002;28;20418;-80
2023/08/22 06:42:39;;;;;;;2.25;0.70;;;19.90;99.90;;;;;;4933997;28;20039;-81
2023/08/22 06:45:08;;;;;;;2.78;0.90;;;20.20;99.90;;;;;;4945552;28;20467;-81
2023/08/22 06:47:33;;;;;;;3.00;1.20;;;20.40;99.90;;;;;;4943185;28;20097;-80
2023/08/22 06:50:00;;;;;;;2.53;0.70;;;20.60;99.90;;;;;;4929121;28;20391;-80
2023/08/22 06:52:28;;;;;;;5.30;1.73;;;20.90;99.90;;;;;;4934976;28;20035;-82
2023/08/22 06:55:05;;;;;;;;;;;20.80;99.90;;;;;;4944989;28;20389;-81
2023/08/22 06:57:31;;;;;;;3.70;1.20;;;20.90;99.90;;;;;;4945538;28;19925;-81
2023/08/22 06:59:57;;;;;;;3.25;1.13;;;21.00;99.90;;;;;;4951235;28;20041;-81
2023/08/22 07:02:22;;;;;;;5.68;2.13;;;21.00;99.90;;;;;;4930089;28;20455;-81
2023/08/22 07:04:48;;;;;;;3.83;1.30;;;21.10;99.90;;;;;;4927323;28;20055;-81
2023/08/22 07:07:14;;;;;;;5.28;0.70;;;21.50;99.90;;;;;;4941838;28;20057;-80
2023/08/22 07:09:39;;;;;;;1.52;0.50;;;21.70;99.90;;;;;;4928830;28;20038;-80
2023/08/22 07:12:05;;;;;;;3.25;1.20;;;21.60;99.90;;;;;;4942205;28;20043;-80
2023/08/22 07:14:31;;;;;;;4.75;1.10;;;21.30;99.90;;;;;;4928495;28;20058;-80
2023/08/22 07:16:56;;;;;;;3.67;0.95;;;21.00;99.90;;;;;;4929509;28;20043;-82
2023/08/22 07:19:22;;;;;;;4.00;1.38;;;20.90;99.90;;;;;;4945718;28;20039;-81
2023/08/22 07:21:48;;;;;;;3.75;0.80;;;20.60;99.90;;;;;;4941487;28;20063;-82
2023/08/22 07:24:14;;;;;;;2.80;0.90;;;20.60;99.90;;;;;;4932727;28;20398;-81
2023/08/22 07:26:40;;;;;;;3.25;1.00;;;20.50;99.90;;;;;;4942752;28;20656;-80
2023/08/22 07:29:06;;;;;;;2.75;0.70;;;20.50;99.90;;;;;;4934837;28;20051;-81
2023/08/22 07:31:31;;;;;;;1.80;0.40;;;20.50;99.90;;;;;;4910305;28;20063;-80
2023/08/22 07:33:57;;;;;;;1.45;0.45;;;20.60;99.90;;;;;;4941998;28;20476;-81
2023/08/22 07:36:23;;;;;;;1.42;0.50;;;20.70;99.90;;;;;;4943024;28;20104;-79
2023/08/22 07:38:49;;;;;;;4.32;1.58;;;20.80;99.90;;;;;;4941661;28;20062;-80
2023/08/22 07:41:14;;;;;;;4.45;1.27;;;20.70;99.90;;;;;;4944460;28;20035;-81
2023/08/22 07:43:40;;;;;;;4.78;1.35;;;20.90;99.90;;;;;;4928233;28;20400;-80
2023/08/22 07:46:06;;;;;;;3.67;1.10;;;21.10;99.90;;;;;;4943997;28;20742;-81
2023/08/22 07:48:32;;;;;;;2.55;1.40;;;21.50;99.90;;;;;;4928326;28;20277;-81
2023/08/22 07:50:58;;;;;;;1.67;0.50;;;21.80;99.90;;;;;;4927540;28;20432;-82
2023/08/22 07:53:24;;;;;;;3.25;1.98;;;22.60;99.90;;;;;;4944027;28;20045;-81
2023/08/22 07:55:49;;;;;;;3.00;1.17;;;22.30;99.90;;;;;;4935439;28;20125;-81
2023/08/22 07:58:15;;;;;;;6.88;2.13;;;22.40;99.90;;;;;;4946631;28;20093;-81
2023/08/22 08:00:45;;;;;;;1.65;0.60;;;22.20;99.90;;;;;;4932283;28;20525;-82
2023/08/22 08:03:11;;;;;;;4.82;1.30;;;22.20;99.90;;;;;;4943542;28;20494;-82
2023/08/22 08:05:37;;;;;;;3.75;1.00;;;22.00;99.90;;;;;;4936471;28;20074;-81
2023/08/22 08:08:03;;;;;;;2.17;0.68;;;22.00;99.90;;;;;;4945945;28;20531;-81
2023/08/22 08:10:29;;;;;;;5.93;0.85;;;22.20;99.90;;;;;;4949443;28;20035;-82
2023/08/22 08:12:54;;;;;;;2.58;0.50;;;22.10;99.90;;;;;;4946787;28;20043;-82
2023/08/22 08:15:20;;;;;;;3.60;0.80;;;22.30;99.90;;;;;;4948197;28;20031;-82
2023/08/22 08:17:46;;;;;;;4.97;1.52;;;22.30;99.90;;;;;;4947619;28;20408;-81
2023/08/22 08:20:11;;;;;;;1.83;0.75;;;22.00;99.90;;;;;;4947324;28;20113;-81
2023/08/22 08:22:37;;;;;;;2.47;0.60;;;22.20;99.90;;;;;;4946236;28;20035;-81
2023/08/22 08:25:03;;;;;;;3.70;0.90;;;22.20;99.90;;;;;;4946017;28;20044;-81
2023/08/22 08:27:29;;;;;;;4.38;0.80;;;22.10;99.90;;;;;;4938603;28;20054;-81
2023/08/22 08:29:55;;;;;;;3.22;0.88;;;22.00;99.90;;;;;;4948842;28;20118;-81
2023/08/22 08:32:21;;;;;;;2.00;0.43;;;22.20;99.90;;;;;;4937382;28;20061;-82
2023/08/22 08:34:47;;;;;;;1.38;0.40;;;22.70;99.90;;;;;;4934479;28;20051;-81
2023/08/22 08:37:12;;;;;;;2.92;0.80;;;22.90;99.90;;;;;;4945514;28;20027;-83
2023/08/22 08:39:38;;;;;;;2.60;0.50;;;22.50;99.90;;;;;;4955891;28;20536;-81
2023/08/22 08:42:11;;;;;;;1.63;0.40;;;22.50;99.90;;;;;;4957185;28;20031;-81
2023/08/22 08:44:37;;;;;;;1.13;0.30;;;22.60;99.90;;;;;;4956600;28;20039;-83
2023/08/22 08:47:03;;;;;;;2.25;0.40;;;22.80;99.90;;;;;;4946519;28;20086;-82
2023/08/22 08:49:32;;;;;;;2.75;0.73;;;22.60;99.90;;;;;;4963032;28;20435;-83
2023/08/22 08:52:02;;;;;;;2.90;0.60;;;22.30;99.90;;;;;;4959038;28;20030;-82
2023/08/22 08:54:28;;;;;;;3.60;0.50;;;22.10;99.90;;;;;;4957985;28;20039;-81
2023/08/22 08:56:55;;;;;;;2.45;0.50;;;22.20;99.90;;;;;;4960583;28;20030;-83
2023/08/22 08:59:20;;;;;;;1.15;0.20;;;22.30;99.90;;;;;;4957874;28;20045;-82
2023/08/22 09:01:47;;;;;;;1.25;0.30;;;22.60;99.90;;;;;;4961534;28;20465;-83
2023/08/22 09:04:13;;;;;;;1.38;0.40;;;22.40;99.90;;;;;;4957786;28;20109;-82
2023/08/22 09:06:39;;;;;;;2.13;0.40;;;22.30;99.90;;;;;;4963221;28;20054;-82
2023/08/22 09:09:10;;;;;;;3.03;0.40;;;22.30;99.90;;;;;;4955321;28;22524;-81
2023/08/22 09:11:44;;;;;;;2.83;0.38;;;22.30;99.90;;;;;;4959574;28;20030;-81
2023/08/22 09:14:10;;;;;;;2.88;0.40;;;22.40;99.90;;;;;;4941904;28;20049;-82
2023/08/22 09:16:36;;;;;;;3.10;0.80;;;22.40;99.90;;;;;;4962156;28;20106;-84
2023/08/22 09:19:02;;;;;;;2.85;0.60;;;22.30;99.90;;;;;;4961218;28;20127;-82
2023/08/22 09:21:29;;;;;;;3.92;0.50;;;22.20;99.90;;;;;;4939474;28;20465;-82
2023/08/22 09:24:08;;;;;;;2.83;0.73;;;22.30;99.90;;;;;;4962653;28;20081;-82
2023/08/22 09:26:34;;;;;;;;;;;22.50;99.90;;;;;;4944283;28;20067;-83
2023/08/22 09:29:07;;;;;;;6.45;1.27;;;22.40;99.90;;;;;;4944931;28;19954;-81
2023/08/22 09:31:36;;;;;;;3.55;0.80;;;22.50;99.90;;;;;;4955265;28;20027;-82
2023/08/22 09:34:09;;;;;;;4.10;0.88;;;22.60;99.90;;;;;;4946497;28;20105;-82
2023/08/22 09:36:44;;;;;;;4.03;0.80;;;22.80;99.90;;;;;;4941020;28;20038;-81
2023/08/22 09:39:13;;;;;;;2.88;0.80;;;23.10;99.90;;;;;;4959165;28;20036;-81
2023/08/22 09:41:39;;;;;;;5.22;1.05;;;23.00;99.90;;;;;;4943727;28;20031;-81
2023/08/22 09:44:06;;;;;;;3.28;1.20;;;22.80;99.90;;;;;;4965426;28;20051;-82
2023/08/22 09:46:32;;;;;;;4.80;1.20;;;22.80;99.90;;;;;;4947537;28;20978;-83
2023/08/22 09:48:59;;;;;;;5.60;0.63;;;22.90;99.90;;;;;;4929564;28;20684;-84
2023/08/22 09:51:25;;;;;;;4.05;1.00;;;23.20;99.90;;;;;;4933882;28;20074;-85
2023/08/22 09:53:59;;;;;;;4.50;0.90;;;23.20;99.90;;;;;;4939343;28;20046;-82
2023/08/22 09:56:25;;;;;;;2.70;1.15;;;23.70;99.90;;;;;;4941644;28;20039;-84
2023/08/22 09:58:52;;;;;;;4.05;1.15;;;23.50;99.90;;;;;;4941803;28;20038;-83
2023/08/22 10:01:19;;;;;;;3.92;0.90;;;23.10;99.90;;;;;;4941617;28;20035;-83
2023/08/22 10:03:47;;;;;;;4.00;1.15;;;23.30;99.90;;;;;;4940079;28;20491;-82
2023/08/22 10:06:14;;;;;;;3.53;1.35;;;23.20;99.90;;;;;;4926247;28;20563;-84
2023/08/22 10:08:46;;;;;;;4.43;1.42;;;23.40;99.90;;;;;;4932613;28;20117;-82
2023/08/22 10:11:14;;;;;;;3.30;0.57;;;23.20;99.90;;;;;;4943061;28;20034;-83
2023/08/22 10:13:41;;;;;;;3.00;0.75;;;23.70;99.90;;;;;;4940655;28;20040;-85
2023/08/22 10:16:07;;;;;;;4.00;0.63;;;23.60;99.90;;;;;;4938818;28;20035;-82
2023/08/22 10:18:33;;;;;;;5.72;1.92;;;23.40;99.90;;;;;;4943589;28;20601;-83
2023/08/22 10:20:59;;;;;;;3.75;1.35;;;23.20;99.90;;;;;;4938686;28;20089;-83
2023/08/22 10:23:53;;;;;;;3.00;1.38;;;23.20;99.90;;;;;;4932922;28;20513;-83
2023/08/22 10:26:20;;;;;;;3.92;1.00;;;23.50;99.90;;;;;;4940524;28;20504;-83
2023/08/22 10:29:12;;;;;;;4.82;1.45;;;23.80;99.90;;;;;;4942676;28;20051;-83
2023/08/22 10:32:16;;;;;;;5.05;1.65;;;23.80;99.90;;;;;;4941519;28;20398;-82
2023/08/22 10:34:41;;;;;;;4.95;1.90;;;24.40;99.90;;;;;;4939861;28;20467;-85
2023/08/22 10:37:18;;;;;;;4.90;1.52;;;24.20;99.90;;;;;;4929691;28;20041;-82
2023/08/22 10:39:45;;;;;;;3.75;1.05;;;24.40;99.90;;;;;;4930319;28;20031;-83
2023/08/22 10:42:21;;;;;;;4.95;1.98;;;24.70;99.90;;;;;;4933584;28;20027;-85
2023/08/22 10:44:55;;;;;;;2.80;0.68;;;24.20;99.90;;;;;;4927408;28;20039;-85
2023/08/22 10:47:26;;;;;;;2.67;0.60;;;24.60;99.90;;;;;;4940534;28;20114;-83
2023/08/22 10:49:57;;;;;;;2.53;0.90;;;25.00;99.90;;;;;;4941966;28;20376;-85
2023/08/22 10:52:37;;;;;;;5.07;1.60;;;25.10;99.90;;;;;;4944916;28;20050;-82
2023/08/22 10:55:03;;;;;;;6.65;2.33;;;24.30;99.90;;;;;;4942508;28;20542;-83
2023/08/22 10:57:55;;;;;;;6.68;3.22;;;24.10;99.90;;;;;;4942517;28;20122;-84
2023/08/22 11:00:22;;;;;;;6.20;3.20;;;24.10;99.90;;;;;;4944974;28;20563;-84
2023/08/22 11:02:56;;;;;;;9.63;3.97;;;24.20;99.90;;;;;;4944093;28;20042;-83
2023/08/22 11:05:22;;;;;;;5.88;2.83;;;24.00;99.90;;;;;;4940442;28;20054;-84
2023/08/22 11:07:49;;;;;;;5.10;2.85;;;23.80;99.90;;;;;;4932503;28;20090;-81
2023/08/22 11:10:18;;;;;;;6.60;3.03;;;23.70;99.90;;;;;;4946781;28;20130;-83
2023/08/22 11:12:45;;;;;;;7.60;2.40;;;23.80;99.90;;;;;;4940331;28;20035;-83
2023/08/22 11:15:12;;;;;;;4.75;1.85;;;24.00;99.90;;;;;;4938766;28;20036;-84
2023/08/22 11:17:40;;;;;;;9.50;3.53;;;24.40;99.90;;;;;;4939267;28;20039;-85
2023/08/22 11:20:17;;;;;;;9.60;3.20;;;24.10;99.90;;;;;;4939813;28;20102;-83
2023/08/22 11:22:44;;;;;;;4.57;2.25;;;24.00;99.90;;;;;;4941802;28;20035;-84
2023/08/22 11:25:13;;;;;;;4.00;0.90;;;24.10;99.90;;;;;;4926206;28;20035;-84
2023/08/22 11:27:40;;;;;;;4.57;2.63;;;24.60;99.90;;;;;;4928096;28;20042;-85
2023/08/22 11:30:07;;;;;;;5.10;1.92;;;24.50;99.90;;;;;;4940628;28;20039;-81
2023/08/22 11:32:35;;;;;;;4.10;2.10;;;24.60;99.90;;;;;;4936773;28;20475;-86
2023/08/22 11:35:04;;;;;;;5.25;1.58;;;24.60;99.90;;;;;;4944259;28;20058;-84
2023/08/22 11:37:34;;;;;;;4.28;1.67;;;24.70;99.90;;;;;;4930598;28;20408;-84
2023/08/22 11:40:00;;;;;;;3.45;1.15;;;24.90;99.90;;;;;;4947209;28;20046;-84
2023/08/22 11:42:30;;;;;;;4.07;0.90;;;24.50;99.90;;;;;;4936621;28;20042;-83
2023/08/22 11:45:04;;;;;;;2.67;0.95;;;24.50;99.90;;;;;;4933961;28;20129;-85
2023/08/22 11:47:37;;;;;;;4.50;1.30;;;24.60;99.90;;;;;;4946680;28;20078;-83
2023/08/22 11:50:04;;;;;;;8.10;1.77;;;24.70;99.90;;;;;;4946091;28;20735;-84
2023/08/22 11:52:31;;;;;;;3.30;1.25;;;24.50;99.90;;;;;;4944399;28;20468;-82
2023/08/22 11:55:07;;;;;;;7.85;2.17;;;24.70;99.90;;;;;;4942815;28;20039;-82
2023/08/22 11:57:39;;;;;;;3.33;1.40;;;24.50;99.90;;;;;;4944638;28;20860;-84
2023/08/22 12:00:07;;;;;;;3.13;1.10;;;24.50;99.90;;;;;;4945688;28;20050;-83
2023/08/22 12:02:41;;;;;;;5.55;1.65;;;25.10;99.90;;;;;;4946143;28;20583;-83
2023/08/22 12:05:07;;;;;;;4.50;0.80;;;24.90;99.90;;;;;;4943011;28;20145;-84
2023/08/22 12:07:42;;;;;;;2.92;0.63;;;25.40;99.90;;;;;;4943332;28;20451;-85
2023/08/22 12:10:12;;;;;;;4.53;0.60;;;25.30;99.90;;;;;;4948949;28;20494;-82
2023/08/22 12:12:37;;;;;;;;;;;24.30;99.90;;;;;;4947783;28;20483;-84
2023/08/22 12:15:03;;;;;;;2.17;0.38;;;24.20;99.90;;;;;;4931447;28;19920;-84
2023/08/22 12:17:31;;;;;;;2.47;0.20;;;24.40;99.90;;;;;;4945751;28;20183;-84
2023/08/22 12:19:56;;;;;;;1.80;0.50;;;24.50;99.90;;;;;;4929586;28;20042;-83
2023/08/22 12:22:22;;;;;;;3.63;0.40;;;24.40;99.90;;;;;;4945819;28;20054;-84
2023/08/22 12:24:48;;;;;;;1.55;0.30;;;24.50;99.90;;;;;;4934721;28;20039;-84
2023/08/22 12:27:14;;;;;;;3.17;0.40;;;24.30;99.90;;;;;;4934526;28;20224;-84
2023/08/22 12:29:41;;;;;;;1.13;0.30;;;24.00;99.90;;;;;;4928972;28;20071;-85
2023/08/22 12:32:07;;;;;;;1.13;0.20;;;24.10;99.90;;;;;;4943098;28;20126;-82
2023/08/22 12:34:33;;;;;;;2.17;0.30;;;24.10;99.90;;;;;;4928930;28;20039;-82
2023/08/22 12:36:59;;;;;;;1.50;0.22;;;23.90;99.90;;;;;;4943219;28;20375;-83
2023/08/22 12:39:25;;;;;;;1.15;0.20;;;24.00;99.90;;;;;;4929908;28;20090;-82
2023/08/22 12:41:51;;;;;;;1.17;0.22;;;24.00;99.90;;;;;;4942410;28;20099;-82
2023/08/22 12:44:16;;;;;;;1.02;0.20;;;24.00;99.90;;;;;;4943505;28;20042;-83
2023/08/22 12:46:42;;;;;;;1.05;0.20;;;23.80;99.90;;;;;;4942320;28;20039;-83
2023/08/22 12:49:08;;;;;;;0.65;0.10;;;23.80;99.90;;;;;;4943943;28;20047;-84